createdAt,value
2019-01-11T00:04:13.097Z,12.80
2019-01-11T00:07:23.012Z,13.07
2019-01-11T00:10:32.649Z,11.50
2019-01-11T00:13:24.147Z,12.33
2019-01-11T00:16:54.205Z,12.07
2019-01-11T00:19:38.262Z,11.70
2019-01-11T00:22:29.099Z,12.57
2019-01-11T00:25:59.239Z,12.30
2019-01-11T00:32:20.344Z,12.17
2019-01-11T00:35:50.697Z,12.50
2019-01-11T00:39:20.661Z,11.20
2019-01-11T00:51:25.068Z,12.00
2019-01-11T00:54:16.033Z,12.43
2019-01-11T00:57:07.159Z,11.33
2019-01-11T01:00:19.868Z,11.90
2019-01-11T01:06:27.996Z,11.43
2019-01-11T01:09:19.506Z,11.27
2019-01-11T01:12:10.576Z,10.80
2019-01-11T01:15:40.537Z,10.60
2019-01-11T01:18:31.566Z,11.27
2019-01-11T01:21:14.368Z,10.50
2019-01-11T01:24:05.561Z,10.90
2019-01-11T01:26:56.453Z,10.37
2019-01-11T01:30:07.005Z,10.83
2019-01-11T01:33:16.584Z,10.93
2019-01-11T01:36:07.441Z,10.67
2019-01-11T01:38:58.334Z,10.17
2019-01-11T01:45:44.675Z,10.53
2019-01-11T01:51:39.565Z,10.50
2019-01-11T01:54:51.023Z,9.30
2019-01-11T01:57:42.322Z,9.47
2019-01-11T02:00:33.719Z,9.63
2019-01-11T02:07:50.858Z,10.00
2019-01-11T02:10:26.279Z,9.63
2019-01-11T02:13:17.178Z,9.90
2019-01-11T02:16:08.002Z,10.43
2019-01-11T02:18:58.904Z,10.87
2019-01-11T02:21:42.585Z,9.60
2019-01-11T02:24:45.587Z,10.33
2019-01-11T02:27:37.753Z,11.83
2019-01-11T02:30:38.268Z,9.93
2019-01-11T02:33:29.498Z,9.50
2019-01-11T02:36:20.615Z,10.20
2019-01-11T02:39:11.476Z,9.83
2019-01-11T02:42:53.396Z,10.03
2019-01-11T02:48:45.822Z,9.67
2019-01-11T02:51:51.225Z,10.07
2019-01-11T02:54:29.781Z,9.33
2019-01-11T03:00:37.567Z,10.67
2019-01-11T03:03:28.633Z,11.50
2019-01-11T03:06:19.587Z,12.00
2019-01-11T03:09:10.844Z,11.20
2019-01-11T03:12:15.769Z,10.97
2019-01-11T03:18:25.617Z,12.00
2019-01-11T03:20:55.618Z,12.73
2019-01-11T03:23:46.959Z,12.50
2019-01-11T03:26:38.525Z,12.63
2019-01-11T03:29:48.239Z,12.47
2019-01-11T03:32:39.113Z,13.37
2019-01-11T03:39:25.021Z,14.07
2019-01-11T03:42:15.876Z,14.67
2019-01-11T03:45:08.296Z,14.10
2019-01-11T03:47:59.821Z,14.80
2019-01-11T03:50:50.803Z,15.17
2019-01-11T03:53:54.021Z,15.43
2019-01-11T03:56:34.177Z,16.07
2019-01-11T04:03:01.583Z,14.53
2019-01-11T04:05:53.175Z,35.93
2019-01-11T04:08:44.490Z,28.50
2019-01-11T04:12:26.818Z,28.07
2019-01-11T04:15:46.516Z,26.10
2019-01-11T04:19:16.560Z,25.47
2019-01-11T04:22:18.612Z,25.10
2019-01-11T04:25:19.168Z,25.10
2019-01-11T04:28:48.880Z,29.30
2019-01-11T04:31:40.201Z,26.67
2019-01-11T04:34:31.048Z,27.43
2019-01-11T04:37:21.933Z,33.20
2019-01-11T04:43:42.930Z,30.30
2019-01-11T04:47:02.527Z,32.63
2019-01-11T04:50:32.420Z,27.37
2019-01-11T04:53:23.785Z,21.87
2019-01-11T04:56:14.845Z,33.37
2019-01-11T04:59:44.886Z,37.63
2019-01-11T05:05:35.212Z,14.03
2019-01-11T05:08:26.114Z,15.30
2019-01-11T05:11:17.454Z,15.60
2019-01-11T05:14:47.443Z,15.53
2019-01-11T05:17:41.416Z,17.20
2019-01-11T05:20:26.366Z,16.73
2019-01-11T05:23:17.390Z,16.03
2019-01-11T05:26:08.447Z,17.43
2019-01-11T05:32:57.019Z,16.80
2019-01-11T05:35:47.133Z,17.90
2019-01-11T05:38:51.305Z,18.20
2019-01-11T05:41:31.633Z,16.60
2019-01-11T05:44:22.979Z,17.03
2019-01-11T05:47:13.254Z,14.83
2019-01-11T05:53:19.423Z,16.20
2019-01-11T05:56:12.854Z,13.93
2019-01-11T05:59:22.163Z,16.60
2019-01-11T06:02:12.214Z,16.47
2019-01-11T06:05:21.226Z,25.27
2019-01-11T06:08:15.534Z,16.27
2019-01-11T06:11:45.481Z,17.03
2019-01-11T06:14:35.975Z,17.63
2019-01-11T06:20:48.158Z,17.93
2019-01-11T06:23:38.282Z,47.07
2019-01-11T06:29:40.167Z,16.50
2019-01-11T06:32:34.269Z,16.83
2019-01-11T06:35:25.001Z,16.87
2019-01-11T06:38:15.798Z,16.70
2019-01-11T06:41:45.326Z,16.97
2019-01-11T06:45:15.170Z,16.93
2019-01-11T06:54:50.905Z,16.17
2019-01-11T06:58:20.415Z,17.17
2019-01-11T07:01:11.778Z,16.93
2019-01-11T07:04:02.158Z,17.80
2019-01-11T07:06:53.891Z,18.70
2019-01-11T07:09:43.955Z,18.37
2019-01-11T07:15:50.395Z,19.97
2019-01-11T07:18:40.468Z,18.80
2019-01-11T07:21:24.408Z,19.03
2019-01-11T07:24:14.423Z,18.03
2019-01-11T07:27:23.804Z,18.60
2019-01-11T07:33:31.528Z,20.33
2019-01-11T07:36:43.858Z,18.43
2019-01-11T07:43:23.326Z,19.17
2019-01-11T07:46:32.398Z,18.53
2019-01-11T07:49:23.509Z,17.40
2019-01-11T07:58:46.916Z,16.50
2019-01-11T08:08:11.402Z,22.93
2019-01-11T08:14:13.307Z,18.17
2019-01-11T08:20:12.872Z,67.33
2019-01-11T08:23:03.212Z,33.93
2019-01-11T08:25:53.272Z,19.97
2019-01-11T08:28:44.442Z,19.23
2019-01-11T08:31:34.991Z,19.27
2019-01-11T08:34:25.010Z,21.90
2019-01-11T08:40:35.227Z,35.23
2019-01-11T08:43:25.452Z,46.10
2019-01-11T08:46:15.493Z,18.13
2019-01-11T08:49:05.671Z,48.07
2019-01-11T08:58:10.162Z,29.00
2019-01-11T09:01:01.393Z,50.63
2019-01-11T09:03:51.475Z,43.70
2019-01-11T09:06:53.831Z,31.37
2019-01-11T09:09:33.697Z,38.23
2019-01-11T09:12:23.871Z,36.43
2019-01-11T09:15:32.906Z,32.87
2019-01-11T09:18:42.194Z,25.83
2019-01-11T09:21:26.029Z,27.87
2019-01-11T09:24:16.587Z,27.83
2019-01-11T09:27:07.572Z,29.57
2019-01-11T09:29:58.362Z,25.43
2019-01-11T09:33:28.016Z,28.70
2019-01-11T09:36:18.230Z,21.53
2019-01-11T09:39:30.657Z,36.00
2019-01-11T09:42:21.290Z,25.83
2019-01-11T09:48:21.940Z,21.00
2019-01-11T09:51:15.752Z,25.53
2019-01-11T09:57:59.704Z,23.23
2019-01-11T10:00:49.801Z,20.80
2019-01-11T10:03:40.411Z,20.83
2019-01-11T10:10:01.132Z,18.63
2019-01-11T10:13:10.249Z,26.00
2019-01-11T10:16:42.473Z,28.40
2019-01-11T10:19:33.830Z,28.83
2019-01-11T10:22:24.353Z,19.23
2019-01-11T10:25:33.518Z,30.73
2019-01-11T10:28:23.589Z,24.40
2019-01-11T10:31:13.892Z,21.07
2019-01-11T10:34:04.130Z,12.93
2019-01-11T10:36:54.377Z,21.13
2019-01-11T10:39:45.296Z,32.30
2019-01-11T10:42:55.825Z,21.77
2019-01-11T10:45:46.166Z,62.03
2019-01-11T10:48:36.197Z,68.83
2019-01-11T10:51:28.206Z,44.97
2019-01-11T10:57:25.970Z,41.70
2019-01-11T11:00:58.470Z,68.47
2019-01-11T11:04:07.641Z,75.50
2019-01-11T11:06:57.994Z,57.53
2019-01-11T11:10:07.218Z,75.53
2019-01-11T11:12:57.305Z,76.03
2019-01-11T11:19:03.660Z,87.23
2019-01-11T11:21:46.431Z,89.20
2019-01-11T11:24:36.574Z,88.77
2019-01-11T11:27:26.674Z,94.57
2019-01-11T11:30:17.477Z,93.23
2019-01-11T11:33:07.585Z,106.03
2019-01-11T11:39:14.306Z,88.43
2019-01-11T11:45:01.797Z,110.20
2019-01-11T11:47:33.535Z,120.07
2019-01-11T11:50:24.053Z,71.33
2019-01-11T11:53:26.604Z,71.93
2019-01-11T11:56:45.350Z,75.43
2019-01-11T12:00:15.994Z,71.87
2019-01-11T12:03:07.778Z,69.60
2019-01-11T12:09:13.925Z,94.87
2019-01-11T12:12:03.959Z,84.77
2019-01-11T12:14:54.920Z,101.53
2019-01-11T12:20:54.843Z,126.27
2019-01-11T12:23:45.526Z,123.20
2019-01-11T12:29:51.807Z,104.17
2019-01-11T12:32:42.126Z,112.10
2019-01-11T12:35:32.295Z,96.23
2019-01-11T12:39:02.537Z,110.47
2019-01-11T12:41:52.631Z,95.40
2019-01-11T12:44:44.078Z,62.30
2019-01-11T12:47:35.335Z,104.53
2019-01-11T12:50:46.554Z,131.47
2019-01-11T12:53:37.890Z,169.73
2019-01-11T12:56:28.701Z,115.53
2019-01-11T13:02:47.184Z,92.17
2019-01-11T13:05:46.230Z,76.77
2019-01-11T13:08:36.822Z,138.33
2019-01-11T13:11:28.270Z,120.90
2019-01-11T13:14:18.311Z,123.20
2019-01-11T13:17:08.925Z,97.03
2019-01-11T13:19:51.984Z,99.97
2019-01-11T13:23:21.566Z,102.17
2019-01-11T13:26:12.328Z,89.37
2019-01-11T13:29:03.882Z,100.20
2019-01-11T13:31:55.109Z,134.40
2019-01-11T13:34:46.300Z,113.27
2019-01-11T13:38:30.973Z,145.50
2019-01-11T13:41:09.724Z,134.03
2019-01-11T13:44:00.751Z,119.13
2019-01-11T13:46:51.233Z,94.83
2019-01-11T13:49:41.532Z,118.00
2019-01-11T13:52:31.626Z,109.97
2019-01-11T13:55:21.669Z,112.57
2019-01-11T13:58:12.179Z,101.83
2019-01-11T14:01:55.449Z,84.60
2019-01-11T14:04:34.868Z,79.07
2019-01-11T14:07:25.617Z,94.53
2019-01-11T14:10:22.509Z,125.70
2019-01-11T14:13:12.646Z,95.43
2019-01-11T14:16:21.718Z,116.33
2019-01-11T14:22:20.699Z,68.40
2019-01-11T14:25:50.415Z,102.37
2019-01-11T14:28:59.248Z,69.83
2019-01-11T14:31:49.520Z,104.90
2019-01-11T14:34:59.340Z,93.60
2019-01-11T14:38:08.401Z,73.20
2019-01-11T14:40:58.533Z,142.37
2019-01-11T14:43:48.735Z,76.00
2019-01-11T14:46:38.866Z,75.77
2019-01-11T14:49:28.941Z,77.03
2019-01-11T14:52:20.447Z,60.87
2019-01-11T14:55:10.903Z,66.03
2019-01-11T14:58:01.025Z,45.83
2019-01-11T15:00:51.148Z,32.27
2019-01-11T15:03:41.245Z,46.30
2019-01-11T15:06:31.392Z,61.03
2019-01-11T15:09:21.480Z,52.20
2019-01-11T15:12:11.565Z,37.97
2019-01-11T15:15:01.653Z,37.70
2019-01-11T15:17:51.735Z,38.57
2019-01-11T15:20:34.151Z,19.17
2019-01-11T15:23:24.251Z,31.77
2019-01-11T15:26:14.285Z,26.63
2019-01-11T15:29:04.475Z,30.93
2019-01-11T15:31:54.581Z,28.80
2019-01-11T15:34:44.686Z,24.67
2019-01-11T15:37:35.888Z,12.67
2019-01-11T15:41:06.576Z,12.20
2019-01-11T15:43:56.696Z,15.63
2019-01-11T15:46:46.773Z,35.30
2019-01-11T15:49:37.140Z,16.07
2019-01-11T15:52:33.256Z,16.63
2019-01-11T15:55:19.728Z,12.93
2019-01-11T15:58:09.785Z,13.73
2019-01-11T16:07:46.580Z,10.43
2019-01-11T16:10:36.609Z,11.77
2019-01-11T16:17:12.183Z,10.77
2019-01-11T16:19:55.102Z,9.90
2019-01-11T16:22:46.478Z,11.87
2019-01-11T16:26:16.657Z,210.93
2019-01-11T16:29:25.908Z,301.43
2019-01-11T16:32:55.613Z,309.77
2019-01-11T16:35:46.174Z,190.73
2019-01-11T16:38:36.934Z,215.13
2019-01-11T16:41:27.505Z,211.67
2019-01-11T16:44:17.675Z,186.37
2019-01-11T16:47:07.782Z,178.63
2019-01-11T16:49:58.872Z,201.57
2019-01-11T16:52:49.995Z,173.10
2019-01-11T16:58:57.079Z,180.03
2019-01-11T17:01:47.171Z,189.40
2019-01-11T17:05:16.765Z,249.77
2019-01-11T17:08:07.276Z,160.33
2019-01-11T17:10:57.427Z,158.67
2019-01-11T17:13:48.174Z,137.37
2019-01-11T17:16:38.837Z,152.27
2019-01-11T17:19:29.270Z,232.07
2019-01-11T17:22:12.407Z,129.93
2019-01-11T17:25:02.629Z,300.80
2019-01-11T17:27:52.739Z,137.10
2019-01-11T17:30:42.851Z,134.30
2019-01-11T17:33:32.953Z,113.10
2019-01-11T17:36:43.034Z,247.07
2019-01-11T17:39:34.160Z,110.50
2019-01-11T17:42:25.435Z,102.13
2019-01-11T17:45:55.717Z,92.50
2019-01-11T17:48:45.695Z,176.27
2019-01-11T17:54:34.807Z,102.50
2019-01-11T17:57:25.020Z,128.33
2019-01-11T18:00:17.606Z,104.57
2019-01-11T18:03:07.776Z,87.50
2019-01-11T18:05:58.120Z,110.43
2019-01-11T18:08:49.177Z,117.60
2019-01-11T18:11:39.197Z,141.20
2019-01-11T18:14:48.515Z,107.90
2019-01-11T18:17:38.601Z,180.03
2019-01-11T18:20:23.466Z,88.43
2019-01-11T18:23:13.503Z,80.80
2019-01-11T18:26:04.232Z,69.40
2019-01-11T18:28:54.264Z,110.63
2019-01-11T18:32:03.421Z,71.20
2019-01-11T18:34:53.400Z,68.97
2019-01-11T18:37:44.190Z,91.47
2019-01-11T18:40:34.219Z,117.27
2019-01-11T18:46:21.980Z,105.27
2019-01-11T18:49:12.020Z,96.53
2019-01-11T18:55:17.633Z,89.37
2019-01-11T18:58:07.698Z,88.83
2019-01-11T19:00:57.921Z,233.03
2019-01-11T19:03:47.958Z,93.27
2019-01-11T19:06:39.849Z,125.23
2019-01-11T19:09:29.900Z,82.13
2019-01-11T19:12:20.017Z,78.40
2019-01-11T19:15:12.468Z,129.40
2019-01-11T19:18:02.542Z,88.10
2019-01-11T19:20:45.090Z,86.77
2019-01-11T19:23:37.399Z,86.30
2019-01-11T19:26:27.450Z,101.47
2019-01-11T19:29:17.489Z,81.60
2019-01-11T19:32:27.839Z,65.83
2019-01-11T19:35:18.025Z,90.40
2019-01-11T19:38:09.297Z,70.97
2019-01-11T19:40:59.371Z,102.47
2019-01-11T19:43:49.364Z,53.60
2019-01-11T19:46:39.380Z,94.23
2019-01-11T19:49:29.420Z,60.93
2019-01-11T19:52:19.936Z,97.50
2019-01-11T19:55:10.192Z,60.33
2019-01-11T19:58:00.223Z,56.30
2019-01-11T20:01:10.261Z,92.67
2019-01-11T20:04:01.900Z,64.10
2019-01-11T20:10:39.901Z,64.73
2019-01-11T20:13:44.868Z,57.90
2019-01-11T20:16:22.594Z,62.40
2019-01-11T20:19:12.600Z,93.27
2019-01-11T20:21:55.403Z,69.30
2019-01-11T20:25:24.938Z,99.17
2019-01-11T20:28:14.972Z,63.47
2019-01-11T20:31:05.042Z,71.23
2019-01-11T20:33:55.627Z,94.43
2019-01-11T20:37:08.682Z,83.70
2019-01-11T20:39:58.710Z,68.93
2019-01-11T20:42:49.765Z,72.77
2019-01-11T20:45:39.833Z,168.60
2019-01-11T20:48:31.342Z,166.77
2019-01-11T20:51:21.372Z,82.93
2019-01-11T20:54:11.392Z,91.23
2019-01-11T20:57:01.433Z,84.53
2019-01-11T20:59:52.377Z,77.67
2019-01-11T21:02:42.579Z,69.97
2019-01-11T21:09:01.931Z,54.20
2019-01-11T21:11:51.987Z,66.13
2019-01-11T21:14:42.784Z,84.93
2019-01-11T21:17:33.398Z,62.20
2019-01-11T21:20:16.968Z,53.20
2019-01-11T21:23:09.034Z,65.47
2019-01-11T21:25:59.304Z,86.47
2019-01-11T21:28:49.318Z,54.67
2019-01-11T21:31:39.447Z,54.30
2019-01-11T21:34:29.473Z,59.47
2019-01-11T21:37:19.609Z,57.40
2019-01-11T21:43:39.713Z,45.63
2019-01-11T21:46:29.767Z,54.93
2019-01-11T21:49:19.787Z,53.97
2019-01-11T21:52:09.815Z,50.87
2019-01-11T21:54:59.911Z,51.70
2019-01-11T21:58:09.061Z,51.47
2019-01-11T22:00:59.614Z,68.87
2019-01-11T22:03:49.775Z,57.87
2019-01-11T22:06:40.031Z,62.67
2019-01-11T22:09:30.992Z,68.90
2019-01-11T22:12:40.429Z,49.13
2019-01-11T22:15:31.256Z,19.57
2019-01-11T22:18:22.168Z,47.90
2019-01-11T22:21:05.503Z,60.03
2019-01-11T22:24:02.856Z,43.97
2019-01-11T22:26:48.924Z,42.73
2019-01-11T22:29:39.858Z,43.80
2019-01-11T22:32:30.723Z,23.43
2019-01-11T22:38:37.754Z,45.53
2019-01-11T22:41:28.690Z,38.77
2019-01-11T22:44:19.566Z,39.60
2019-01-11T22:47:10.409Z,49.93
2019-01-11T22:50:01.355Z,46.03
2019-01-11T22:52:52.531Z,42.63
2019-01-11T22:55:44.844Z,43.40
2019-01-11T22:58:35.689Z,9.47
2019-01-11T23:02:04.011Z,5.17
2019-01-11T23:04:54.841Z,22.33
2019-01-11T23:08:06.246Z,42.70
2019-01-11T23:11:34.615Z,23.73
2019-01-11T23:14:25.488Z,59.17
2019-01-11T23:17:53.795Z,38.70
2019-01-11T23:20:37.205Z,34.73
2019-01-11T23:23:28.096Z,45.17
2019-01-11T23:26:19.057Z,30.47
2019-01-11T23:29:09.894Z,32.77
2019-01-11T23:32:00.766Z,39.10
2019-01-11T23:34:51.589Z,51.27
2019-01-11T23:37:42.485Z,35.00
2019-01-11T23:43:43.598Z,35.93
2019-01-11T23:46:35.141Z,33.00
2019-01-11T23:49:26.008Z,37.47
2019-01-11T23:52:16.938Z,33.10
2019-01-11T23:55:08.624Z,37.57
2019-01-11T23:57:59.565Z,54.57
